Time;durP1;ratioP1;P1;durP2;ratioP2;P2;SDS_P1;SDS_P2;PMS_P1;PMS_P2;Temp;Humidity;BMP_temperature;BMP_pressure;BME280_temperature;BME280_humidity;BME280_pressure;Samples;Min_cycle;Max_cycle;Signal;HPM_P1;HPM_P2
2023/02/17 00:02:08;;;;;;;27.85;17.75;;;23.40;42.70;;;;;;6247487;27;83477;-60
2023/02/17 00:05:08;;;;;;;27.80;17.80;;;23.40;42.60;;;;;;6247139;27;83150;-61
2023/02/17 00:08:09;;;;;;;30.85;18.63;;;23.40;43.00;;;;;;6242078;27;83202;-60
2023/02/17 00:11:09;;;;;;;25.48;16.95;;;23.40;42.70;;;;;;6248953;27;84148;-60
2023/02/17 00:14:10;;;;;;;27.92;17.80;;;23.40;43.10;;;;;;6257515;27;83186;-62
2023/02/17 00:17:10;;;;;;;29.83;18.45;;;23.40;42.60;;;;;;6247608;27;82788;-62
2023/02/17 00:20:11;;;;;;;26.90;17.38;;;23.30;42.30;;;;;;6246432;28;87075;-61
2023/02/17 00:23:11;;;;;;;27.38;17.70;;;23.30;42.50;;;;;;6247158;28;83406;-61
2023/02/17 00:26:12;;;;;;;26.42;16.75;;;23.30;42.50;;;;;;6248788;27;83857;-60
2023/02/17 00:29:13;;;;;;;27.15;17.17;;;23.30;42.60;;;;;;6247955;27;84071;-59
2023/02/17 00:32:13;;;;;;;28.73;16.73;;;23.40;42.70;;;;;;6248001;27;83312;-60
2023/02/17 00:35:14;;;;;;;26.48;16.65;;;23.30;42.60;;;;;;6247787;27;83510;-60
2023/02/17 00:38:15;;;;;;;29.83;17.67;;;23.30;42.90;;;;;;6246593;28;83786;-60
2023/02/17 00:41:15;;;;;;;27.60;16.42;;;23.30;42.30;;;;;;6236651;27;82766;-60
2023/02/17 00:44:17;;;;;;;26.55;16.33;;;23.30;42.60;;;;;;6218239;28;84234;-61
2023/02/17 00:47:17;;;;;;;28.35;17.25;;;23.30;42.70;;;;;;6248619;27;83643;-60
2023/02/17 00:50:18;;;;;;;26.08;16.63;;;23.40;42.90;;;;;;6249049;27;86463;-59
2023/02/17 00:53:18;;;;;;;26.13;16.42;;;23.30;43.10;;;;;;6217241;28;83343;-60
2023/02/17 00:56:19;;;;;;;26.90;16.50;;;23.30;42.40;;;;;;6248120;27;83987;-59
2023/02/17 00:59:19;;;;;;;26.08;15.75;;;23.30;42.30;;;;;;6226073;28;84128;-61
2023/02/17 01:02:20;;;;;;;26.55;17.05;;;23.30;42.50;;;;;;6248138;27;83166;-59
2023/02/17 01:05:20;;;;;;;26.67;17.20;;;23.30;42.30;;;;;;6245990;27;86803;-59
2023/02/17 01:08:21;;;;;;;25.95;15.57;;;23.30;42.30;;;;;;6245453;27;85651;-59
2023/02/17 01:11:21;;;;;;;26.48;16.02;;;23.30;43.00;;;;;;6217674;27;83304;-58
2023/02/17 01:14:22;;;;;;;28.08;15.77;;;23.30;42.40;;;;;;6236646;28;85399;-59
2023/02/17 01:17:22;;;;;;;25.70;16.75;;;23.30;42.40;;;;;;6213987;27;86268;-59
2023/02/17 01:20:23;;;;;;;23.95;14.88;;;23.20;42.20;;;;;;6235958;27;83048;-60
2023/02/17 01:23:23;;;;;;;25.45;15.65;;;23.30;42.00;;;;;;6248481;27;83131;-62
2023/02/17 01:26:26;;;;;;;24.70;15.82;;;23.20;42.10;;;;;;6223346;27;84125;-62
2023/02/17 01:29:27;;;;;;;23.73;15.25;;;23.20;42.00;;;;;;6234774;27;84123;-60
2023/02/17 01:32:27;;;;;;;24.33;15.73;;;23.20;42.50;;;;;;6215883;27;84681;-60
2023/02/17 01:35:28;;;;;;;24.88;15.63;;;23.20;42.60;;;;;;6228419;27;86106;-59
2023/02/17 01:38:28;;;;;;;24.40;15.80;;;23.20;42.40;;;;;;6246837;27;83224;-60
2023/02/17 01:41:29;;;;;;;21.25;14.65;;;23.20;42.30;;;;;;6229042;28;84289;-60
2023/02/17 01:44:29;;;;;;;23.10;15.10;;;23.20;42.20;;;;;;6227667;28;85952;-59
2023/02/17 01:47:31;;;;;;;27.02;16.15;;;23.20;42.20;;;;;;6247085;28;84119;-59
2023/02/17 01:50:31;;;;;;;23.63;16.17;;;23.20;42.00;;;;;;6247009;27;83377;-60
2023/02/17 01:53:32;;;;;;;27.33;15.77;;;23.20;41.80;;;;;;6246012;27;83353;-61
2023/02/17 01:56:32;;;;;;;22.42;15.35;;;23.20;42.10;;;;;;6209064;27;86404;-61
2023/02/17 01:59:33;;;;;;;22.70;15.20;;;23.20;42.10;;;;;;6204782;28;85850;-60
2023/02/17 02:02:33;;;;;;;25.92;15.18;;;23.20;42.00;;;;;;6238827;28;83868;-63
2023/02/17 02:05:34;;;;;;;24.27;14.40;;;23.20;41.90;;;;;;6232115;27;86071;-60
2023/02/17 02:08:34;;;;;;;22.38;15.00;;;23.20;41.90;;;;;;6246799;27;84001;-60
2023/02/17 02:11:35;;;;;;;24.20;14.82;;;23.20;41.80;;;;;;6231854;27;82849;-60
2023/02/17 02:14:35;;;;;;;24.25;15.65;;;23.20;42.40;;;;;;6225123;28;84432;-60
2023/02/17 02:17:36;;;;;;;23.33;15.85;;;23.20;41.80;;;;;;6207484;28;84476;-60
2023/02/17 02:20:36;;;;;;;21.98;15.23;;;23.20;41.60;;;;;;6230950;28;84110;-60
2023/02/17 02:23:37;;;;;;;24.42;15.27;;;23.20;41.90;;;;;;6250620;27;85751;-60
2023/02/17 02:26:37;;;;;;;26.88;15.90;;;23.20;41.70;;;;;;6233577;28;84184;-60
2023/02/17 02:29:38;;;;;;;23.65;15.68;;;23.20;41.40;;;;;;6221469;28;84158;-61
2023/02/17 02:32:39;;;;;;;22.58;15.23;;;23.20;41.50;;;;;;6247222;28;84671;-61
2023/02/17 02:35:39;;;;;;;22.77;15.50;;;23.20;41.70;;;;;;6231940;28;84879;-60
2023/02/17 02:38:40;;;;;;;24.42;14.93;;;23.20;41.30;;;;;;6232088;28;85697;-60
2023/02/17 02:41:40;;;;;;;23.90;15.23;;;23.20;41.50;;;;;;6218144;27;85640;-60
2023/02/17 02:44:41;;;;;;;26.25;15.48;;;23.10;41.60;;;;;;6250342;27;86862;-59
2023/02/17 02:47:41;;;;;;;26.25;15.02;;;23.20;41.50;;;;;;6250881;27;82927;-56
2023/02/17 02:50:42;;;;;;;25.45;15.75;;;23.20;41.60;;;;;;6231949;28;85973;-59
2023/02/17 02:53:43;;;;;;;25.73;15.23;;;23.20;41.30;;;;;;6221081;28;86010;-58
2023/02/17 02:56:43;;;;;;;22.77;14.55;;;23.20;41.40;;;;;;6231940;28;86109;-58
2023/02/17 02:59:44;;;;;;;24.55;15.93;;;23.20;41.60;;;;;;6228756;27;85877;-58
2023/02/17 03:02:45;;;;;;;26.42;15.35;;;23.10;41.70;;;;;;6231951;27;85533;-58
2023/02/17 03:05:46;;;;;;;22.95;14.48;;;23.10;41.80;;;;;;6231599;27;85678;-59
2023/02/17 03:08:46;;;;;;;23.00;14.05;;;23.10;41.60;;;;;;6230671;27;85181;-60
2023/02/17 03:11:47;;;;;;;25.48;15.68;;;23.10;41.80;;;;;;6255924;27;83185;-60
2023/02/17 03:14:48;;;;;;;22.85;14.15;;;23.10;41.80;;;;;;6233195;28;85455;-62
2023/02/17 03:17:50;;;;;;;21.88;13.63;;;23.10;41.80;;;;;;6242006;27;86318;-61
2023/02/17 03:20:50;;;;;;;20.63;14.05;;;23.10;42.00;;;;;;6216909;28;84348;-59
2023/02/17 03:23:52;;;;;;;22.50;14.60;;;23.10;41.90;;;;;;6216111;28;85433;-60
2023/02/17 03:26:52;;;;;;;23.15;14.40;;;23.10;42.00;;;;;;6231156;28;84256;-60
2023/02/17 03:29:53;;;;;;;21.75;14.38;;;23.10;41.90;;;;;;6239471;27;83334;-60
2023/02/17 03:32:54;;;;;;;24.35;14.48;;;23.10;41.90;;;;;;6207671;27;86267;-60
2023/02/17 03:35:54;;;;;;;25.30;14.93;;;23.10;41.80;;;;;;6249697;28;83078;-61
2023/02/17 03:38:55;;;;;;;19.33;13.35;;;23.10;42.40;;;;;;6243366;28;84271;-62
2023/02/17 03:41:55;;;;;;;24.77;14.52;;;23.10;42.20;;;;;;6249584;27;83801;-59
2023/02/17 03:44:56;;;;;;;22.88;13.02;;;23.10;41.70;;;;;;6238010;27;86128;-60
2023/02/17 03:47:56;;;;;;;19.17;12.43;;;23.10;41.60;;;;;;6248853;27;85231;-59
2023/02/17 03:50:57;;;;;;;21.73;13.68;;;23.10;42.20;;;;;;6247420;27;83128;-60
2023/02/17 03:53:57;;;;;;;21.95;13.95;;;23.10;41.90;;;;;;6250542;28;83443;-60
2023/02/17 03:56:59;;;;;;;22.20;13.68;;;23.10;41.80;;;;;;6242905;28;82974;-60
2023/02/17 04:00:00;;;;;;;20.60;13.02;;;23.10;41.10;;;;;;6248675;27;83294;-58
2023/02/17 04:03:01;;;;;;;21.42;13.10;;;23.10;41.50;;;;;;6230700;28;83267;-59
2023/02/17 04:06:01;;;;;;;18.40;12.80;;;23.10;41.80;;;;;;6249240;27;83148;-59
2023/02/17 04:09:02;;;;;;;18.88;13.13;;;23.10;41.70;;;;;;6248259;28;83051;-59
2023/02/17 04:12:02;;;;;;;20.98;13.65;;;23.10;41.80;;;;;;6253384;27;82913;-58
2023/02/17 04:15:03;;;;;;;22.40;12.38;;;23.10;41.80;;;;;;6249659;27;86404;-59
2023/02/17 04:18:03;;;;;;;19.10;12.80;;;23.10;41.70;;;;;;6235978;28;82974;-58
2023/02/17 04:21:04;;;;;;;19.58;12.15;;;23.10;41.80;;;;;;6236593;28;84132;-59
2023/02/17 04:24:04;;;;;;;19.33;12.77;;;23.10;42.00;;;;;;6235701;28;84248;-59
2023/02/17 04:27:05;;;;;;;17.92;11.93;;;23.10;41.70;;;;;;6247589;27;83451;-53
2023/02/17 04:30:06;;;;;;;20.95;12.50;;;23.10;42.00;;;;;;6230945;28;83466;-50
2023/02/17 04:33:06;;;;;;;19.90;12.48;;;23.10;41.80;;;;;;6239627;28;83829;-51
2023/02/17 04:36:07;;;;;;;20.02;11.18;;;23.10;42.10;;;;;;6244049;27;82859;-46
2023/02/17 04:39:07;;;;;;;18.08;12.38;;;23.10;42.10;;;;;;6241666;28;84523;-48
2023/02/17 04:42:08;;;;;;;18.67;12.15;;;23.20;42.90;;;;;;6242929;27;83142;-50
2023/02/17 04:45:08;;;;;;;20.38;13.20;;;23.20;41.80;;;;;;6247027;28;85927;-51
2023/02/17 04:48:09;;;;;;;20.67;13.40;;;23.20;41.40;;;;;;6242985;27;83346;-49
2023/02/17 04:51:09;;;;;;;22.15;13.75;;;23.20;41.30;;;;;;6235538;28;83117;-51
2023/02/17 04:54:10;;;;;;;18.38;12.23;;;23.30;41.30;;;;;;6247121;27;82937;-52
2023/02/17 04:57:10;;;;;;;20.10;13.25;;;23.30;41.20;;;;;;6238072;28;83229;-54
2023/02/17 05:00:11;;;;;;;21.30;13.82;;;23.40;41.00;;;;;;6243482;28;82996;-53
2023/02/17 05:03:11;;;;;;;23.95;12.93;;;23.40;40.80;;;;;;6237966;28;83010;-50
2023/02/17 05:06:12;;;;;;;20.23;13.05;;;23.40;40.80;;;;;;6247940;27;83323;-54
2023/02/17 05:09:13;;;;;;;22.08;13.10;;;23.50;40.70;;;;;;6247528;28;83567;-52
2023/02/17 05:12:13;;;;;;;20.40;12.65;;;23.50;40.60;;;;;;6233570;27;89195;-59
2023/02/17 05:15:14;;;;;;;18.83;13.32;;;23.50;40.40;;;;;;6213789;28;83159;-60
2023/02/17 05:18:14;;;;;;;20.98;13.02;;;23.50;40.70;;;;;;6244612;28;87387;-51
2023/02/17 05:21:15;;;;;;;21.77;12.48;;;23.60;39.90;;;;;;6235519;27;84120;-57
2023/02/17 05:24:15;;;;;;;21.33;13.85;;;23.50;40.50;;;;;;6231221;27;84659;-63
2023/02/17 05:27:16;;;;;;;21.10;13.50;;;23.60;40.00;;;;;;6241252;27;84622;-62
2023/02/17 05:30:16;;;;;;;20.25;12.77;;;23.60;39.90;;;;;;6231994;27;83833;-61
2023/02/17 05:33:17;;;;;;;20.98;13.52;;;23.60;39.70;;;;;;6235625;27;82969;-65
2023/02/17 05:36:17;;;;;;;25.45;14.10;;;23.60;39.60;;;;;;6215835;27;87228;-50
2023/02/17 05:39:18;;;;;;;20.63;13.20;;;23.60;40.50;;;;;;6229459;28;86640;-61
2023/02/17 05:42:18;;;;;;;22.13;13.45;;;23.60;40.50;;;;;;6231343;27;82948;-63
2023/02/17 05:45:19;;;;;;;22.45;13.40;;;23.60;40.80;;;;;;6235802;28;82870;-61
2023/02/17 05:48:19;;;;;;;20.95;12.73;;;23.60;40.60;;;;;;6207954;28;84520;-69
2023/02/17 05:51:20;;;;;;;23.88;12.88;;;23.60;40.70;;;;;;6221724;27;83564;-66
2023/02/17 05:54:20;;;;;;;22.85;13.25;;;23.60;40.50;;;;;;6235908;27;83785;-74
2023/02/17 05:57:21;;;;;;;26.08;14.30;;;23.60;40.10;;;;;;6236478;28;83671;-70
2023/02/17 06:00:22;;;;;;;24.73;13.73;;;23.50;40.00;;;;;;6244514;27;83046;-61
2023/02/17 06:03:22;;;;;;;24.75;12.77;;;23.50;40.10;;;;;;6245886;27;83332;-62
2023/02/17 06:06:23;;;;;;;24.75;14.27;;;23.50;40.40;;;;;;6236157;27;83346;-62
2023/02/17 06:09:23;;;;;;;23.33;14.80;;;23.50;40.30;;;;;;6232559;28;84263;-58
2023/02/17 06:12:24;;;;;;;29.02;14.63;;;23.50;39.90;;;;;;6237246;27;88441;-62
2023/02/17 06:15:24;;;;;;;23.13;13.55;;;23.50;40.30;;;;;;6236829;27;84204;-62
2023/02/17 06:18:25;;;;;;;26.08;14.43;;;23.50;40.40;;;;;;6241149;27;83069;-60
2023/02/17 06:21:25;;;;;;;22.20;13.15;;;23.50;40.40;;;;;;6236528;27;83943;-62
2023/02/17 06:24:26;;;;;;;21.67;13.60;;;23.40;40.60;;;;;;6244912;28;83308;-63
2023/02/17 06:27:26;;;;;;;28.10;13.98;;;23.40;40.40;;;;;;6242852;27;83634;-62
2023/02/17 06:30:27;;;;;;;25.63;13.30;;;23.40;40.20;;;;;;6238974;27;83156;-62
2023/02/17 06:33:28;;;;;;;20.77;12.88;;;23.40;40.00;;;;;;6244796;28;84961;-63
2023/02/17 06:36:28;;;;;;;17.85;12.73;;;23.30;40.20;;;;;;6246084;27;84292;-63
2023/02/17 06:39:29;;;;;;;25.92;13.13;;;23.30;40.00;;;;;;6232321;28;83614;-62
2023/02/17 06:42:29;;;;;;;22.17;13.23;;;23.30;40.00;;;;;;6227483;27;83378;-63
2023/02/17 06:45:30;;;;;;;21.55;13.40;;;23.30;40.00;;;;;;6157617;27;86726;-62
2023/02/17 06:48:32;;;;;;;18.60;12.45;;;23.30;39.80;;;;;;6062325;27;87968;-62
2023/02/17 06:51:32;;;;;;;20.88;12.52;;;23.30;40.00;;;;;;6216288;27;83711;-61
2023/02/17 06:54:33;;;;;;;20.60;12.88;;;23.30;39.90;;;;;;6222305;27;85432;-61
2023/02/17 06:57:33;;;;;;;21.92;13.23;;;23.30;40.40;;;;;;6229007;27;87707;-62
2023/02/17 07:00:34;;;;;;;19.70;12.52;;;23.20;39.90;;;;;;6230207;27;88908;-60
2023/02/17 07:03:34;;;;;;;19.15;12.35;;;23.20;39.80;;;;;;6235849;27;86603;-62
2023/02/17 07:06:35;;;;;;;23.67;12.88;;;23.20;39.80;;;;;;6232127;27;87904;-60
2023/02/17 07:09:35;;;;;;;21.38;13.00;;;23.20;39.70;;;;;;6231696;27;87879;-63
2023/02/17 07:12:36;;;;;;;19.35;12.75;;;23.20;39.70;;;;;;6229362;27;86723;-53
2023/02/17 07:15:36;;;;;;;19.73;12.77;;;23.20;39.70;;;;;;6231936;27;83262;-54
2023/02/17 07:18:37;;;;;;;19.63;11.98;;;23.20;39.60;;;;;;6244392;27;83484;-55
2023/02/17 07:21:37;;;;;;;21.13;12.60;;;23.20;39.60;;;;;;6228745;27;83161;-55
2023/02/17 07:24:38;;;;;;;18.35;11.85;;;23.20;39.50;;;;;;6233974;27;83412;-49
2023/02/17 07:27:39;;;;;;;19.13;11.82;;;23.20;39.60;;;;;;6232402;27;83900;-53
2023/02/17 07:30:39;;;;;;;18.92;12.30;;;23.20;39.70;;;;;;6240447;27;83135;-53
2023/02/17 07:33:40;;;;;;;18.58;11.40;;;23.20;39.90;;;;;;6244145;27;83691;-55
2023/02/17 07:36:40;;;;;;;19.80;11.27;;;23.20;39.90;;;;;;6231778;27;83490;-55
2023/02/17 07:39:41;;;;;;;17.70;11.75;;;23.20;39.90;;;;;;6217997;28;84045;-53
2023/02/17 07:42:41;;;;;;;17.02;10.77;;;23.10;39.70;;;;;;6225427;28;82899;-55
2023/02/17 07:45:42;;;;;;;20.45;11.43;;;23.10;39.60;;;;;;6239922;27;82915;-53
2023/02/17 07:48:42;;;;;;;18.60;11.10;;;23.10;40.40;;;;;;6243080;27;88444;-53
2023/02/17 07:51:43;;;;;;;22.10;10.63;;;23.20;39.80;;;;;;6233698;27;83466;-51
2023/02/17 07:54:43;;;;;;;14.90;10.35;;;23.10;39.80;;;;;;6232740;27;83409;-53
2023/02/17 07:57:44;;;;;;;14.65;9.68;;;23.10;39.80;;;;;;6228730;27;83465;-49
2023/02/17 08:00:44;;;;;;;16.58;9.75;;;23.10;39.80;;;;;;6239450;27;85050;-52
2023/02/17 08:03:45;;;;;;;21.15;10.25;;;23.10;39.90;;;;;;6235743;27;86194;-54
2023/02/17 08:06:45;;;;;;;16.95;10.50;;;23.10;39.90;;;;;;6234188;27;82890;-61
2023/02/17 08:13:20;;;;;;;16.70;10.02;;;23.10;40.00;;;;;;6233454;27;83096;-63
2023/02/17 08:16:21;;;;;;;14.23;9.77;;;23.10;40.10;;;;;;6231208;27;86180;-63
2023/02/17 08:19:21;;;;;;;14.07;9.63;;;23.10;40.10;;;;;;6240741;27;82909;-61
2023/02/17 08:22:22;;;;;;;14.27;8.32;;;23.10;40.20;;;;;;6230607;27;80781;-61
2023/02/17 08:25:23;;;;;;;13.50;8.55;;;23.20;40.40;;;;;;6240553;27;82418;-53
2023/02/17 08:28:23;;;;;;;12.40;8.38;;;23.10;40.50;;;;;;6241261;27;80907;-52
2023/02/17 08:31:24;;;;;;;13.13;8.77;;;23.10;40.60;;;;;;6244049;27;80665;-51
2023/02/17 08:34:24;;;;;;;11.07;7.63;;;23.20;40.60;;;;;;6221029;27;83528;-51
2023/02/17 08:37:25;;;;;;;13.75;7.57;;;23.20;40.60;;;;;;6227422;27;83182;-53
2023/02/17 08:40:25;;;;;;;11.45;7.78;;;23.20;40.80;;;;;;6235645;27;82413;-53
2023/02/17 08:43:26;;;;;;;13.77;8.25;;;23.20;40.80;;;;;;6244322;28;81789;-62
2023/02/17 08:46:26;;;;;;;13.85;7.30;;;23.20;40.90;;;;;;6237798;27;82274;-62
2023/02/17 08:49:28;;;;;;;10.57;6.82;;;23.30;40.70;;;;;;6240617;27;81295;-61
2023/02/17 08:52:29;;;;;;;11.15;6.90;;;23.30;40.70;;;;;;6236968;27;80953;-61
2023/02/17 08:55:29;;;;;;;10.27;7.03;;;23.30;40.90;;;;;;6228605;27;83623;-61
2023/02/17 08:58:30;;;;;;;12.70;7.30;;;23.40;41.10;;;;;;6233512;27;81488;-64
2023/02/17 09:01:31;;;;;;;12.20;6.68;;;23.40;40.80;;;;;;6237035;27;81392;-64
2023/02/17 09:04:31;;;;;;;10.45;6.45;;;23.40;40.40;;;;;;6234704;27;80998;-63
2023/02/17 09:07:32;;;;;;;10.40;6.65;;;23.50;40.40;;;;;;6238195;27;82765;-62
2023/02/17 09:10:33;;;;;;;13.68;7.38;;;23.50;40.30;;;;;;6238943;27;80927;-63
2023/02/17 09:13:33;;;;;;;12.77;7.20;;;23.50;40.10;;;;;;6239943;27;82172;-60
2023/02/17 09:16:34;;;;;;;10.45;6.32;;;23.60;40.10;;;;;;6245117;27;81425;-63
2023/02/17 09:19:35;;;;;;;8.48;6.22;;;23.60;40.00;;;;;;6230974;27;80191;-64
2023/02/17 09:22:36;;;;;;;9.18;6.32;;;23.60;39.90;;;;;;6243244;27;81200;-63
2023/02/17 09:25:36;;;;;;;9.98;6.78;;;23.60;39.90;;;;;;6230749;27;80421;-63
2023/02/17 09:28:37;;;;;;;12.57;6.32;;;23.60;39.80;;;;;;6234287;27;81265;-64
2023/02/17 09:31:37;;;;;;;10.45;6.18;;;23.60;39.80;;;;;;6240906;27;80423;-64
2023/02/17 09:34:38;;;;;;;12.02;6.38;;;23.60;39.70;;;;;;6234713;27;85238;-65
2023/02/17 09:37:38;;;;;;;8.68;5.93;;;23.60;39.70;;;;;;6231983;27;81797;-63
2023/02/17 09:40:39;;;;;;;9.23;6.47;;;23.60;39.70;;;;;;6242224;27;81795;-62
2023/02/17 09:43:39;;;;;;;8.65;6.30;;;23.60;39.70;;;;;;6240519;27;81324;-62
2023/02/17 09:46:40;;;;;;;9.32;5.80;;;23.60;39.80;;;;;;6243917;27;81155;-63
2023/02/17 09:49:41;;;;;;;9.57;5.72;;;23.60;39.70;;;;;;6239560;27;80670;-62
2023/02/17 09:52:41;;;;;;;7.50;5.70;;;23.60;39.80;;;;;;6235560;27;80548;-63
2023/02/17 09:55:42;;;;;;;8.02;5.70;;;23.60;39.70;;;;;;6233916;27;80569;-64
2023/02/17 09:58:42;;;;;;;10.07;5.70;;;23.60;40.40;;;;;;6226332;27;80740;-65
2023/02/17 10:01:43;;;;;;;11.15;6.53;;;23.60;39.70;;;;;;6235969;27;81109;-65
2023/02/17 10:04:43;;;;;;;8.90;5.63;;;23.60;39.60;;;;;;6240448;27;81125;-67
2023/02/17 10:07:44;;;;;;;9.23;5.72;;;23.60;39.50;;;;;;6235902;27;80473;-65
2023/02/17 10:10:44;;;;;;;8.73;5.85;;;23.60;39.60;;;;;;6234961;27;81230;-67
2023/02/17 10:13:45;;;;;;;6.88;5.20;;;23.60;39.50;;;;;;6243892;27;80793;-56
2023/02/17 10:16:45;;;;;;;8.93;5.45;;;23.60;39.50;;;;;;6246109;27;80769;-54
2023/02/17 10:19:46;;;;;;;9.82;5.72;;;23.70;39.60;;;;;;6224953;27;81322;-54
2023/02/17 10:22:46;;;;;;;7.03;5.15;;;23.70;39.50;;;;;;6233593;27;84509;-55
2023/02/17 10:25:47;;;;;;;8.75;5.57;;;23.70;39.60;;;;;;6228294;27;80704;-55
2023/02/17 10:28:48;;;;;;;8.32;6.00;;;23.70;39.70;;;;;;6229318;27;80715;-56
2023/02/17 10:31:48;;;;;;;9.93;5.00;;;23.70;40.00;;;;;;6237760;27;80885;-54
2023/02/17 10:34:49;;;;;;;9.60;5.45;;;23.70;39.60;;;;;;6233208;27;81604;-55
2023/02/17 10:37:49;;;;;;;10.20;5.90;;;23.70;39.50;;;;;;6227711;27;80722;-54
2023/02/17 10:40:50;;;;;;;9.05;5.60;;;23.70;39.50;;;;;;6232961;27;81361;-55
2023/02/17 10:43:50;;;;;;;8.18;5.32;;;23.70;39.50;;;;;;6235081;27;80656;-56
2023/02/17 10:46:51;;;;;;;7.90;5.38;;;23.70;39.50;;;;;;6250478;27;82400;-56
2023/02/17 10:49:51;;;;;;;8.45;5.20;;;23.70;39.50;;;;;;6234328;27;87374;-55
2023/02/17 10:52:52;;;;;;;7.30;5.25;;;23.70;39.40;;;;;;6242809;27;81697;-54
2023/02/17 10:55:52;;;;;;;7.20;5.10;;;23.70;39.50;;;;;;6245444;27;86230;-55
2023/02/17 10:58:53;;;;;;;6.35;4.85;;;23.70;39.50;;;;;;6236787;27;80271;-55
2023/02/17 11:01:54;;;;;;;8.35;5.15;;;23.70;39.50;;;;;;6234127;27;80644;-55
2023/02/17 11:04:54;;;;;;;8.15;4.97;;;23.70;39.50;;;;;;6241456;27;80419;-53
2023/02/17 11:07:55;;;;;;;7.53;4.90;;;23.70;39.60;;;;;;6238067;27;80916;-53
2023/02/17 11:10:55;;;;;;;7.55;5.13;;;23.70;39.60;;;;;;6247097;27;80360;-55
2023/02/17 11:13:56;;;;;;;9.15;5.38;;;23.70;39.60;;;;;;6241660;27;80540;-53
2023/02/17 11:16:58;;;;;;;7.55;5.20;;;23.70;39.60;;;;;;6244046;27;81541;-54
2023/02/17 11:19:58;;;;;;;6.85;5.05;;;23.70;39.60;;;;;;6230543;27;81463;-48
2023/02/17 11:22:59;;;;;;;7.80;5.30;;;23.70;39.70;;;;;;6244098;27;80680;-53
2023/02/17 11:25:59;;;;;;;8.30;5.03;;;23.70;39.90;;;;;;6240979;27;80870;-53
2023/02/17 11:29:00;;;;;;;10.02;5.30;;;23.70;39.90;;;;;;6242049;27;81627;-53
2023/02/17 11:32:00;;;;;;;6.25;4.80;;;23.70;39.90;;;;;;6222298;27;80383;-54
2023/02/17 11:35:05;;;;;;;6.93;5.05;;;23.60;39.80;;;;;;6241654;27;81878;-54
2023/02/17 11:38:05;;;;;;;10.27;5.05;;;23.60;40.00;;;;;;6239761;27;80534;-53
2023/02/17 11:41:06;;;;;;;6.65;4.53;;;23.60;40.40;;;;;;6243108;27;80545;-50
2023/02/17 11:44:06;;;;;;;6.47;4.35;;;23.50;40.30;;;;;;6249060;27;80741;-53
2023/02/17 11:47:07;;;;;;;9.18;4.93;;;23.50;40.50;;;;;;6242562;27;85836;-55
2023/02/17 11:50:07;;;;;;;6.25;4.78;;;23.50;40.60;;;;;;6239275;27;83628;-55
2023/02/17 11:53:08;;;;;;;7.50;5.10;;;23.50;40.60;;;;;;6246149;27;81889;-56
2023/02/17 11:56:09;;;;;;;6.38;4.50;;;23.50;40.60;;;;;;6241532;27;80557;-56
2023/02/17 11:59:09;;;;;;;6.72;4.18;;;23.50;40.70;;;;;;6235758;27;80871;-53
2023/02/17 12:02:10;;;;;;;7.35;4.65;;;23.50;40.60;;;;;;6244881;27;82925;-55
2023/02/17 12:05:10;;;;;;;5.97;4.28;;;23.50;40.70;;;;;;6237189;27;80847;-56
2023/02/17 12:08:11;;;;;;;4.82;3.75;;;23.50;40.90;;;;;;6238266;27;80937;-55
2023/02/17 12:11:11;;;;;;;6.10;4.60;;;23.50;41.20;;;;;;6240512;27;80899;-55
2023/02/17 12:14:12;;;;;;;7.40;4.20;;;23.50;41.00;;;;;;6219131;27;81147;-53
2023/02/17 12:17:12;;;;;;;5.40;3.95;;;23.50;41.10;;;;;;6239762;27;85941;-54
2023/02/17 12:20:13;;;;;;;7.65;4.70;;;23.50;41.30;;;;;;6234587;27;80423;-56
2023/02/17 12:23:13;;;;;;;6.93;4.55;;;23.50;41.30;;;;;;6238167;27;80852;-54
2023/02/17 12:26:14;;;;;;;6.05;4.03;;;23.50;41.40;;;;;;6237943;27;81246;-54
2023/02/17 12:29:14;;;;;;;4.88;3.95;;;23.50;41.40;;;;;;6234722;27;81342;-55
2023/02/17 12:32:15;;;;;;;5.18;4.15;;;23.50;41.80;;;;;;6225671;27;84192;-55
2023/02/17 12:35:16;;;;;;;7.35;4.72;;;23.50;41.50;;;;;;6241371;27;82026;-56
2023/02/17 12:38:16;;;;;;;11.98;5.18;;;23.50;41.70;;;;;;6238716;27;86229;-55
2023/02/17 12:41:17;;;;;;;10.02;4.60;;;23.50;41.90;;;;;;6238863;27;81001;-57
2023/02/17 12:44:17;;;;;;;14.57;5.75;;;23.50;42.70;;;;;;6249527;27;80761;-55
2023/02/17 12:47:18;;;;;;;19.20;6.60;;;23.50;42.80;;;;;;6239602;27;82741;-55
2023/02/17 12:50:18;;;;;;;17.65;5.57;;;23.50;44.00;;;;;;6227996;28;82407;-53
2023/02/17 12:53:19;;;;;;;14.07;5.13;;;23.50;44.20;;;;;;6242500;27;85582;-54
2023/02/17 12:56:19;;;;;;;11.52;5.70;;;23.50;44.60;;;;;;6241563;27;80108;-56
2023/02/17 12:59:20;;;;;;;13.02;5.28;;;23.50;44.50;;;;;;6237835;27;85403;-54
2023/02/17 13:02:21;;;;;;;13.90;5.78;;;23.50;44.00;;;;;;6232597;27;85580;-54
2023/02/17 13:05:21;;;;;;;12.88;5.30;;;23.50;43.90;;;;;;6239463;27;82508;-56
2023/02/17 13:08:22;;;;;;;10.15;5.53;;;23.50;43.80;;;;;;6240447;27;81701;-58
2023/02/17 13:11:22;;;;;;;11.00;5.20;;;23.40;43.80;;;;;;6241745;27;80957;-57
2023/02/17 13:14:23;;;;;;;11.55;4.78;;;23.40;43.60;;;;;;6235538;27;81199;-56
2023/02/17 13:17:23;;;;;;;11.00;4.63;;;23.40;43.40;;;;;;6239415;27;80503;-56
2023/02/17 13:20:24;;;;;;;11.60;4.50;;;23.40;43.40;;;;;;6240700;27;82797;-57
2023/02/17 13:23:24;;;;;;;9.07;4.57;;;23.40;43.20;;;;;;6241376;27;80422;-55
2023/02/17 13:26:25;;;;;;;10.80;4.18;;;23.40;43.20;;;;;;6233293;27;82699;-56
2023/02/17 13:29:26;;;;;;;12.85;4.78;;;23.40;43.10;;;;;;6239631;27;81670;-57
2023/02/17 13:32:27;;;;;;;8.82;4.00;;;23.30;43.00;;;;;;6219950;28;81987;-54
2023/02/17 13:35:28;;;;;;;10.70;4.32;;;23.30;42.90;;;;;;6243884;27;81465;-56
2023/02/17 13:38:28;;;;;;;9.13;4.15;;;23.30;42.80;;;;;;6238583;27;81278;-56
2023/02/17 13:41:29;;;;;;;7.55;4.15;;;23.30;42.80;;;;;;6235347;27;80915;-55
2023/02/17 13:44:29;;;;;;;8.73;3.78;;;23.30;42.70;;;;;;6249540;27;82892;-56
2023/02/17 13:47:30;;;;;;;6.05;3.95;;;23.30;42.70;;;;;;6246362;27;81377;-55
2023/02/17 13:50:31;;;;;;;6.35;3.58;;;23.30;42.60;;;;;;6236751;27;83103;-57
2023/02/17 13:53:31;;;;;;;7.03;4.07;;;23.30;42.50;;;;;;6239837;27;80814;-57
2023/02/17 13:56:32;;;;;;;9.40;3.55;;;23.30;42.60;;;;;;6233039;27;80424;-56
2023/02/17 13:59:33;;;;;;;7.50;3.83;;;23.30;42.60;;;;;;6241060;27;81710;-54
2023/02/17 14:02:34;;;;;;;4.95;3.15;;;23.30;42.90;;;;;;6228610;27;80261;-55
2023/02/17 14:05:34;;;;;;;6.40;4.03;;;23.30;43.10;;;;;;6236659;27;80789;-55
2023/02/17 14:08:35;;;;;;;7.30;4.03;;;23.30;43.60;;;;;;6247569;27;82206;-56
2023/02/17 14:11:35;;;;;;;14.02;7.72;;;23.30;43.80;;;;;;6237685;27;80135;-58
2023/02/17 14:14:36;;;;;;;126.20;63.17;;;23.30;43.90;;;;;;6234523;27;80599;-57
2023/02/17 14:17:37;;;;;;;327.90;148.15;;;23.40;44.40;;;;;;6240523;27;83316;-52
2023/02/17 14:20:37;;;;;;;317.52;152.43;;;23.40;44.50;;;;;;6241784;27;87107;-50
2023/02/17 14:23:38;;;;;;;326.00;147.80;;;23.40;44.50;;;;;;6225024;27;87815;-53
2023/02/17 14:26:38;;;;;;;282.02;132.27;;;23.40;45.40;;;;;;6239746;27;86220;-47
2023/02/17 14:29:39;;;;;;;251.35;121.47;;;23.40;44.80;;;;;;6239470;27;85549;-49
2023/02/17 14:32:39;;;;;;;345.08;161.90;;;23.50;46.00;;;;;;6224478;27;85620;-48
2023/02/17 14:35:40;;;;;;;408.98;193.68;;;23.50;45.30;;;;;;6233729;27;86322;-50
2023/02/17 14:38:40;;;;;;;441.73;214.48;;;23.50;45.30;;;;;;6235863;27;86451;-51
2023/02/17 14:41:41;;;;;;;448.65;219.57;;;23.50;45.00;;;;;;6238996;27;85377;-49
2023/02/17 14:44:41;;;;;;;375.27;179.45;;;23.50;45.00;;;;;;6237432;27;86389;-53
2023/02/17 14:47:42;;;;;;;339.83;157.75;;;23.50;44.90;;;;;;6230095;27;85879;-50
2023/02/17 14:50:43;;;;;;;300.15;138.55;;;23.50;45.10;;;;;;6236659;27;85245;-51
2023/02/17 14:53:44;;;;;;;250.18;115.68;;;23.50;45.50;;;;;;6213011;28;87038;-53
2023/02/17 14:56:44;;;;;;;215.38;105.57;;;23.50;44.90;;;;;;6236378;27;86183;-50
2023/02/17 14:59:45;;;;;;;199.02;96.40;;;23.50;44.80;;;;;;6244254;27;88637;-56
2023/02/17 15:02:45;;;;;;;193.65;90.25;;;23.50;44.70;;;;;;6244487;27;84247;-55
2023/02/17 15:05:46;;;;;;;176.10;84.00;;;23.50;44.70;;;;;;6238505;27;84777;-54
2023/02/17 15:08:48;;;;;;;156.15;75.32;;;23.50;44.70;;;;;;6237025;27;85289;-53
2023/02/17 15:11:49;;;;;;;152.57;72.18;;;23.50;44.80;;;;;;6238256;27;84328;-53
2023/02/17 15:14:49;;;;;;;135.50;66.88;;;23.50;44.50;;;;;;6235752;28;83812;-54
2023/02/17 15:17:50;;;;;;;126.10;59.08;;;23.40;44.40;;;;;;6233468;27;84079;-56
2023/02/17 15:20:51;;;;;;;106.90;53.78;;;23.40;44.30;;;;;;6233604;27;84985;-54
2023/02/17 15:23:51;;;;;;;100.75;48.65;;;23.40;44.50;;;;;;6233738;27;83563;-53